Time;durP1;ratioP1;P1;durP2;ratioP2;P2;SDS_P1;SDS_P2;PMS_P1;PMS_P2;Temp;Humidity;BMP_temperature;BMP_pressure;BME280_temperature;BME280_humidity;BME280_pressure;Samples;Min_cycle;Max_cycle;Signal;HPM_P1;HPM_P2
2024/02/23 00:00:29;;;;;;;0.60;0.60;;;;;;;4.85;96.09;94914.28;29397;234;63004;-54
2024/02/23 00:01:00;;;;;;;0.60;0.60;;;;;;;4.90;93.50;94906.06;29397;258;63009;-55
2024/02/23 00:01:31;;;;;;;0.60;0.60;;;;;;;4.94;93.33;94907.03;29396;239;63004;-53
2024/02/23 00:02:03;;;;;;;0.60;0.60;;;;;;;4.93;93.72;94895.50;29396;205;63009;-52
2024/02/23 00:02:34;;;;;;;0.60;0.60;;;;;;;4.90;94.74;94908.75;29396;241;63004;-53
2024/02/23 00:03:07;;;;;;;0.60;0.60;;;;;;;4.87;95.31;94914.72;29396;247;63008;-52
2024/02/23 00:03:39;;;;;;;0.60;0.60;;;;;;;4.88;94.76;94903.69;29396;245;63005;-64
2024/02/23 00:04:12;;;;;;;0.60;0.60;;;;;;;4.85;94.94;94912.34;29396;204;63009;-54
2024/02/23 00:04:44;;;;;;;0.60;0.60;;;;;;;4.84;95.83;94918.84;29395;209;64009;-53
2024/02/23 00:05:15;;;;;;;0.60;0.60;;;;;;;4.83;96.75;94917.25;29396;263;63009;-51
2024/02/23 00:05:47;;;;;;;0.60;0.60;;;;;;;4.82;96.49;94914.88;29396;309;63005;-51
2024/02/23 00:06:18;;;;;;;0.55;0.55;;;;;;;4.81;96.85;94913.28;29396;261;63009;-52
2024/02/23 00:06:49;;;;;;;0.60;0.60;;;;;;;4.79;96.97;94920.84;29396;220;63005;-52
2024/02/23 00:07:20;;;;;;;0.60;0.60;;;;;;;4.79;97.70;94915.47;29396;219;63009;-53
2024/02/23 00:07:52;;;;;;;0.60;0.60;;;;;;;4.79;98.01;94912.78;29396;207;63004;-52
2024/02/23 00:08:23;;;;;;;0.60;0.60;;;;;;;4.85;97.68;94919.66;29396;269;63009;-53
2024/02/23 00:08:55;;;;;;;0.60;0.60;;;;;;;4.83;97.09;94917.25;29395;250;64004;-53
2024/02/23 00:09:26;;;;;;;0.60;0.60;;;;;;;4.85;96.89;94919.66;29396;196;63008;-54
2024/02/23 00:09:59;;;;;;;0.60;0.60;;;;;;;4.83;96.89;94916.47;29395;284;64008;-52
2024/02/23 00:10:30;;;;;;;0.60;0.60;;;;;;;4.80;97.25;94917.87;29396;201;63012;-52
2024/02/23 00:11:02;;;;;;;0.60;0.60;;;;;;;4.79;97.81;94918.16;29396;199;63005;-52
2024/02/23 00:11:33;;;;;;;0.60;0.60;;;;;;;4.78;98.22;94916.56;29396;206;63014;-52
2024/02/23 00:12:06;;;;;;;0.60;0.60;;;;;;;4.78;98.51;94905.81;29395;245;64009;-51
2024/02/23 00:12:37;;;;;;;0.60;0.60;;;;;;;4.75;98.80;94911.81;29396;254;63009;-52
2024/02/23 00:13:08;;;;;;;0.60;0.60;;;;;;;4.75;99.10;94909.13;29396;221;63005;-52
2024/02/23 00:13:42;;;;;;;0.60;0.60;;;;;;;4.72;99.19;94899.78;29396;239;63009;-52
2024/02/23 00:14:18;;;;;;;0.60;0.60;;;;;;;4.69;99.37;94906.53;29396;197;63004;-52
2024/02/23 00:14:50;;;;;;;0.60;0.60;;;;;;;4.68;99.35;94904.97;29396;276;63009;-53
2024/02/23 00:15:25;;;;;;;0.60;0.60;;;;;;;4.70;99.89;94901.97;29396;222;63004;-51
2024/02/23 00:15:56;;;;;;;0.60;0.60;;;;;;;4.70;99.56;94902.75;29396;225;63009;-51
2024/02/23 00:16:29;;;;;;;0.60;0.60;;;;;;;4.71;99.27;94904.34;29396;208;63008;-63
2024/02/23 00:17:01;;;;;;;0.60;0.60;;;;;;;4.73;99.30;94906.75;29396;258;63008;-54
2024/02/23 00:17:33;;;;;;;0.60;0.60;;;;;;;4.81;97.52;94900.66;29395;295;64009;-51
2024/02/23 00:18:05;;;;;;;0.60;0.60;;;;;;;4.81;97.44;94907.91;29396;206;63012;-51
2024/02/23 00:18:37;;;;;;;0.60;0.60;;;;;;;4.79;97.70;94910.91;29396;236;63017;-52
2024/02/23 00:19:17;;;;;;;0.50;0.50;;;;;;;4.78;97.41;94914.69;29396;257;63009;-53
2024/02/23 00:19:52;;;;;;;0.60;0.60;;;;;;;4.89;96.03;94909.84;29440;199;63005;-49
2024/02/23 00:20:23;;;;;;;0.60;0.60;;;;;;;4.89;95.90;94921.38;29396;307;63009;-51
2024/02/23 00:20:56;;;;;;;0.60;0.60;;;;;;;4.90;96.53;94922.97;29396;219;63005;-57
2024/02/23 00:21:27;;;;;;;0.60;0.60;;;;;;;4.95;95.25;94920.19;29396;209;63005;-53
2024/02/23 00:22:02;;;;;;;0.57;0.57;;;;;;;5.02;93.94;94919.75;29396;299;63004;-52
2024/02/23 00:22:33;;;;;;;0.60;0.60;;;;;;;5.00;94.31;94921.94;29395;211;64013;-51
2024/02/23 00:23:05;;;;;;;0.60;0.60;;;;;;;5.07;94.39;94927.69;29396;225;63004;-57
2024/02/23 00:23:36;;;;;;;0.60;0.60;;;;;;;5.05;93.62;94922.63;29396;311;63009;-53
2024/02/23 00:24:08;;;;;;;0.60;0.60;;;;;;;5.05;92.78;94922.63;29396;259;63004;-53
2024/02/23 00:24:40;;;;;;;0.60;0.60;;;;;;;5.04;93.26;94931.00;29396;231;63008;-53
2024/02/23 00:25:12;;;;;;;0.60;0.60;;;;;;;5.06;93.19;94920.75;29396;274;63005;-52
2024/02/23 00:25:43;;;;;;;0.60;0.60;;;;;;;5.01;93.09;94940.47;29396;258;63009;-51
2024/02/23 00:26:14;;;;;;;0.60;0.60;;;;;;;4.96;93.50;94937.09;29396;257;63005;-54
2024/02/23 00:26:46;;;;;;;0.60;0.60;;;;;;;5.09;93.22;94935.47;29396;271;63009;-57
2024/02/23 00:27:17;;;;;;;0.60;0.60;;;;;;;5.13;91.14;94929.19;29396;254;63005;-52
2024/02/23 00:27:48;;;;;;;0.60;0.60;;;;;;;5.07;91.15;94927.69;29395;202;64013;-51
2024/02/23 00:28:20;;;;;;;0.60;0.60;;;;;;;5.04;91.83;94931.00;29397;209;63005;-52
2024/02/23 00:28:51;;;;;;;0.60;0.60;;;;;;;5.04;92.91;94933.69;29396;206;63014;-53
2024/02/23 00:29:22;;;;;;;0.60;0.60;;;;;;;5.03;92.92;94942.84;29396;291;63004;-52
2024/02/23 00:29:54;;;;;;;0.60;0.60;;;;;;;5.04;92.73;94947.13;29396;204;63009;-52
2024/02/23 00:30:25;;;;;;;0.60;0.60;;;;;;;5.00;92.67;94954.22;29396;203;63004;-53
2024/02/23 00:30:56;;;;;;;0.60;0.60;;;;;;;4.98;92.48;94945.66;29396;263;63009;-53
2024/02/23 00:31:28;;;;;;;0.60;0.60;;;;;;;5.00;92.94;94948.84;29396;239;63004;-54
2024/02/23 00:31:59;;;;;;;0.60;0.60;;;;;;;5.01;92.44;94942.34;29396;258;63008;-53
2024/02/23 00:32:30;;;;;;;0.60;0.60;;;;;;;5.00;92.52;94946.16;29396;198;63004;-53
2024/02/23 00:33:01;;;;;;;0.50;0.50;;;;;;;4.98;92.88;94951.03;29395;237;64014;-53
2024/02/23 00:33:33;;;;;;;0.60;0.60;;;;;;;4.94;93.44;94950.84;29396;229;63005;-53
2024/02/23 00:34:04;;;;;;;0.60;0.60;;;;;;;4.96;94.35;94947.84;29396;238;63008;-54
2024/02/23 00:34:37;;;;;;;0.60;0.60;;;;;;;4.96;93.91;94947.84;29396;219;63005;-53
2024/02/23 00:35:08;;;;;;;0.60;0.60;;;;;;;4.96;93.68;94948.66;29396;206;63009;-53
2024/02/23 00:35:39;;;;;;;0.60;0.60;;;;;;;4.94;93.97;94950.84;29396;218;63005;-53
2024/02/23 00:36:11;;;;;;;0.60;0.60;;;;;;;4.93;94.86;94951.12;29396;219;63009;-53
2024/02/23 00:36:44;;;;;;;0.55;0.55;;;;;;;4.93;94.95;94948.44;29396;229;63000;-54
2024/02/23 00:37:15;;;;;;;0.60;0.60;;;;;;;4.96;94.33;94953.22;29395;196;64009;-53
2024/02/23 00:37:47;;;;;;;0.60;0.60;;;;;;;4.98;94.08;94940.28;29396;216;63004;-54
2024/02/23 00:38:18;;;;;;;0.60;0.60;;;;;;;4.96;94.10;94954.03;29395;265;64013;-53
2024/02/23 00:38:49;;;;;;;0.60;0.60;;;;;;;4.96;94.43;94956.72;29396;243;63004;-52
2024/02/23 00:39:21;;;;;;;0.60;0.60;;;;;;;4.98;94.74;94956.41;29396;204;63008;-53
2024/02/23 00:39:52;;;;;;;0.60;0.60;;;;;;;5.01;93.84;94958.47;29396;209;63004;-53
2024/02/23 00:40:23;;;;;;;0.60;0.60;;;;;;;5.03;93.40;94964.34;29396;203;63009;-55
2024/02/23 00:40:54;;;;;;;0.60;0.60;;;;;;;5.15;91.81;94961.94;29396;280;63005;-53
2024/02/23 00:41:26;;;;;;;0.60;0.60;;;;;;;5.15;91.33;94953.06;29396;223;63009;-53
2024/02/23 00:41:57;;;;;;;0.60;0.60;;;;;;;5.18;91.58;94953.25;29396;229;63010;-66
2024/02/23 00:42:28;;;;;;;0.60;0.60;;;;;;;5.15;91.69;94955.75;29396;196;63009;-53
2024/02/23 00:43:00;;;;;;;0.60;0.60;;;;;;;5.09;92.02;94957.75;29396;247;63005;-54
2024/02/23 00:43:40;;;;;;;0.60;0.60;;;;;;;5.02;92.94;94950.13;29395;201;64013;-53
2024/02/23 00:44:12;;;;;;;0.60;0.60;;;;;;;5.03;93.16;94956.28;29396;309;63005;-57
2024/02/23 00:44:44;;;;;;;0.60;0.60;;;;;;;5.12;91.97;94942.91;29396;202;63009;-53
2024/02/23 00:45:15;;;;;;;0.60;0.60;;;;;;;5.08;91.85;94956.19;29396;202;63004;-53
2024/02/23 00:45:47;;;;;;;0.60;0.60;;;;;;;5.06;92.26;94953.00;29396;204;63009;-53
2024/02/23 00:46:18;;;;;;;0.60;0.60;;;;;;;5.02;92.79;94949.31;29396;228;63004;-53
2024/02/23 00:46:49;;;;;;;0.60;0.60;;;;;;;4.99;93.28;94952.63;29396;210;63008;-52
2024/02/23 00:47:21;;;;;;;0.60;0.60;;;;;;;4.95;93.56;94947.06;29396;258;63004;-53
2024/02/23 00:47:52;;;;;;;0.60;0.60;;;;;;;4.94;94.56;94948.16;29396;212;63009;-53
2024/02/23 00:48:27;;;;;;;0.60;0.60;;;;;;;4.92;94.61;94954.94;29396;207;63005;-53
2024/02/23 00:48:58;;;;;;;0.50;0.50;;;;;;;4.91;94.84;94951.44;29395;247;64014;-53
2024/02/23 00:49:30;;;;;;;0.60;0.60;;;;;;;4.91;95.13;94945.28;29396;214;63005;-53
2024/02/23 00:50:02;;;;;;;0.60;0.60;;;;;;;4.95;95.51;94948.94;29396;199;63009;-53
2024/02/23 00:50:33;;;;;;;0.60;0.60;;;;;;;4.94;94.86;94939.28;29397;218;63005;-53
2024/02/23 00:51:04;;;;;;;0.60;0.60;;;;;;;4.92;95.12;94947.66;29397;302;63009;-53
2024/02/23 00:51:36;;;;;;;0.60;0.60;;;;;;;4.93;94.72;94943.88;29397;237;63005;-52
2024/02/23 00:52:07;;;;;;;0.60;0.60;;;;;;;4.89;93.97;94947.47;29397;250;63009;-53
2024/02/23 00:52:38;;;;;;;0.60;0.60;;;;;;;4.87;93.79;94941.59;29397;199;63004;-53
2024/02/23 00:53:10;;;;;;;0.55;0.55;;;;;;;4.88;93.91;94952.03;29397;227;63009;-51
2024/02/23 00:53:41;;;;;;;0.60;0.60;;;;;;;4.85;93.31;94944.59;29397;202;63004;-53
2024/02/23 00:54:13;;;;;;;0.60;0.60;;;;;;;4.81;94.18;94943.62;29394;296;64028;-53
2024/02/23 00:54:44;;;;;;;0.60;0.60;;;;;;;4.78;94.59;94946.13;29395;296;63004;-53
2024/02/23 00:55:15;;;;;;;0.60;0.60;;;;;;;4.76;94.96;94951.00;29395;197;63009;-53
2024/02/23 00:55:47;;;;;;;0.60;0.60;;;;;;;4.76;95.28;94954.50;29396;230;63005;-53
2024/02/23 00:56:18;;;;;;;0.60;0.60;;;;;;;4.76;94.95;94954.50;29394;207;64014;-53
2024/02/23 00:56:49;;;;;;;0.60;0.60;;;;;;;4.74;95.87;94956.69;29395;199;63005;-53
2024/02/23 00:57:27;;;;;;;0.60;0.60;;;;;;;4.74;95.99;94956.69;29395;251;63009;-53
2024/02/23 00:57:59;;;;;;;0.60;0.60;;;;;;;4.73;95.85;94960.47;29395;248;63005;-53
2024/02/23 00:58:30;;;;;;;0.60;0.60;;;;;;;4.72;95.92;94958.88;29395;292;63009;-52
2024/02/23 00:59:01;;;;;;;0.60;0.60;;;;;;;4.77;95.82;94961.47;29394;206;63000;-53
2024/02/23 00:59:33;;;;;;;0.60;0.60;;;;;;;4.78;95.01;94967.62;29393;247;64013;-53
2024/02/23 01:00:06;;;;;;;0.60;0.60;;;;;;;4.78;95.09;94967.62;29395;207;63004;-53
2024/02/23 01:00:37;;;;;;;0.60;0.60;;;;;;;4.82;94.95;94965.94;29395;199;63009;-53
2024/02/23 01:01:08;;;;;;;0.60;0.60;;;;;;;4.78;93.72;94967.62;29395;224;63004;-53
2024/02/23 01:01:40;;;;;;;0.60;0.60;;;;;;;4.77;93.73;94966.03;29395;259;63008;-53
2024/02/23 01:02:11;;;;;;;0.60;0.60;;;;;;;4.76;93.99;94969.81;29395;259;63004;-53
2024/02/23 01:02:42;;;;;;;0.60;0.60;;;;;;;4.77;94.58;94972.22;29395;245;63008;-53
2024/02/23 01:03:15;;;;;;;0.60;0.60;;;;;;;4.79;94.92;94969.22;29395;285;63005;-53
2024/02/23 01:03:46;;;;;;;0.60;0.60;;;;;;;4.84;95.11;94971.78;29395;206;63012;-54
2024/02/23 01:04:17;;;;;;;0.60;0.60;;;;;;;4.84;92.99;94971.78;29395;198;63005;-54
2024/02/23 01:04:56;;;;;;;0.60;0.60;;;;;;;4.84;93.09;94972.59;29393;240;64013;-53
2024/02/23 01:05:28;;;;;;;0.60;0.60;;;;;;;4.86;92.96;94967.69;29395;227;63005;-52
2024/02/23 01:05:59;;;;;;;0.60;0.60;;;;;;;4.88;92.96;94968.16;29395;215;63009;-53
2024/02/23 01:06:30;;;;;;;0.60;0.60;;;;;;;4.87;93.39;94968.47;29395;199;63004;-53
2024/02/23 01:07:01;;;;;;;0.60;0.60;;;;;;;4.86;93.82;94970.37;29395;276;63009;-53
2024/02/23 01:07:33;;;;;;;0.60;0.60;;;;;;;4.87;94.31;94968.47;29395;250;63004;-53
2024/02/23 01:08:05;;;;;;;0.60;0.60;;;;;;;4.86;94.37;94966.88;29395;217;63009;-53
2024/02/23 01:08:36;;;;;;;0.50;0.50;;;;;;;4.85;94.50;94968.00;29395;219;63004;-53
2024/02/23 01:09:07;;;;;;;0.60;0.60;;;;;;;4.86;94.31;94969.56;29395;251;63008;-52
2024/02/23 01:09:38;;;;;;;0.52;0.52;;;;;;;4.83;93.64;94972.88;29395;218;63005;-52
2024/02/23 01:10:10;;;;;;;0.60;0.60;;;;;;;4.84;94.18;94971.78;29393;241;64014;-53
2024/02/23 01:10:42;;;;;;;0.60;0.60;;;;;;;4.85;94.26;94978.75;29395;222;63011;-53
2024/02/23 01:11:13;;;;;;;0.60;0.60;;;;;;;4.84;94.26;94979.84;29394;216;63009;-53
2024/02/23 01:11:45;;;;;;;0.60;0.60;;;;;;;4.85;94.53;94982.22;29395;278;63005;-53
2024/02/23 01:12:16;;;;;;;0.60;0.60;;;;;;;4.84;94.29;94987.91;29395;219;63009;-53
2024/02/23 01:12:47;;;;;;;0.60;0.60;;;;;;;4.83;94.51;94989.00;29395;208;63005;-53
2024/02/23 01:13:18;;;;;;;0.60;0.60;;;;;;;4.87;94.43;94979.22;29395;213;63009;-52
2024/02/23 01:13:50;;;;;;;0.60;0.60;;;;;;;4.87;94.06;94987.28;29395;291;63004;-52
2024/02/23 01:14:21;;;;;;;0.60;0.60;;;;;;;4.84;93.92;94983.34;29395;225;63009;-52
2024/02/23 01:14:53;;;;;;;0.50;0.50;;;;;;;4.83;94.20;94976.38;29395;218;63004;-53
2024/02/23 01:15:24;;;;;;;0.60;0.60;;;;;;;4.82;94.75;94979.38;29393;262;64013;-52
2024/02/23 01:15:55;;;;;;;0.60;0.60;;;;;;;4.79;94.80;94980.75;29395;261;63004;-52
2024/02/23 01:16:27;;;;;;;0.60;0.60;;;;;;;4.78;95.16;94983.75;29395;202;63008;-52
2024/02/23 01:16:58;;;;;;;0.50;0.50;;;;;;;4.78;95.24;94983.75;29395;208;63004;-53
2024/02/23 01:17:29;;;;;;;0.60;0.60;;;;;;;4.79;95.53;94974.59;29395;226;63009;-53
2024/02/23 01:18:01;;;;;;;0.60;0.60;;;;;;;4.81;95.71;94973.19;29395;232;63005;-53
2024/02/23 01:18:32;;;;;;;0.60;0.60;;;;;;;4.82;95.19;94985.53;29395;306;63017;-53
2024/02/23 01:19:03;;;;;;;0.57;0.57;;;;;;;4.81;95.27;94983.16;29395;233;63005;-54
2024/02/23 01:19:37;;;;;;;0.57;0.57;;;;;;;4.83;94.96;94973.69;29395;202;63009;-52
2024/02/23 01:20:09;;;;;;;0.60;0.60;;;;;;;4.83;94.50;94962.16;29395;309;63005;-52
2024/02/23 01:20:41;;;;;;;0.60;0.60;;;;;;;4.83;94.98;94964.84;29393;197;64013;-52
2024/02/23 01:21:12;;;;;;;0.50;0.50;;;;;;;4.81;95.09;94958.97;29395;239;63004;-53
2024/02/23 01:21:43;;;;;;;0.60;0.60;;;;;;;4.78;95.32;94946.13;29395;214;63009;-53
2024/02/23 01:22:14;;;;;;;0.60;0.60;;;;;;;4.77;95.47;94955.28;29395;256;63004;-52
2024/02/23 01:22:46;;;;;;;0.60;0.60;;;;;;;4.77;95.10;94950.72;29395;265;63009;-52
2024/02/23 01:23:17;;;;;;;0.50;0.50;;;;;;;4.77;94.62;94957.97;29395;227;63009;-52
2024/02/23 01:23:48;;;;;;;0.60;0.60;;;;;;;4.76;94.99;94964.44;29395;246;63015;-52
2024/02/23 01:24:20;;;;;;;0.60;0.60;;;;;;;4.76;95.11;94959.88;29395;267;63004;-53
2024/02/23 01:24:51;;;;;;;0.60;0.60;;;;;;;4.77;94.95;94960.66;29395;242;63009;-53
2024/02/23 01:25:23;;;;;;;0.60;0.60;;;;;;;4.80;94.98;94968.13;29395;198;63005;-52
2024/02/23 01:25:54;;;;;;;0.60;0.60;;;;;;;4.77;94.83;94968.72;29393;197;64014;-52
2024/02/23 01:26:25;;;;;;;0.60;0.60;;;;;;;4.75;94.53;94965.53;29394;196;63000;-52
2024/02/23 01:26:57;;;;;;;0.60;0.60;;;;;;;4.71;94.80;94968.84;29395;224;63009;-52
2024/02/23 01:27:29;;;;;;;0.60;0.60;;;;;;;4.71;95.11;94968.84;29395;202;63005;-53
2024/02/23 01:28:04;;;;;;;0.60;0.60;;;;;;;4.72;95.63;94970.41;29395;287;63009;-53
2024/02/23 01:28:35;;;;;;;0.60;0.60;;;;;;;4.74;96.03;94961.25;29394;244;64005;-52
2024/02/23 01:29:06;;;;;;;0.60;0.60;;;;;;;4.74;95.26;94958.56;29395;224;63009;-52
2024/02/23 01:29:38;;;;;;;0.60;0.60;;;;;;;4.74;95.22;94963.94;29395;197;63004;-53
2024/02/23 01:30:10;;;;;;;0.50;0.50;;;;;;;4.71;95.19;94966.12;29395;283;63009;-52
2024/02/23 01:30:41;;;;;;;0.60;0.60;;;;;;;4.74;95.50;94972.00;29395;223;63004;-53
2024/02/23 01:31:13;;;;;;;0.60;0.60;;;;;;;4.77;95.36;94966.03;29394;213;64013;-54
2024/02/23 01:31:44;;;;;;;0.60;0.60;;;;;;;4.79;95.32;94974.59;29395;198;63004;-53
2024/02/23 01:32:16;;;;;;;0.60;0.60;;;;;;;4.78;94.85;94979.16;29395;285;63009;-52
2024/02/23 01:32:48;;;;;;;0.60;0.60;;;;;;;4.76;94.51;94989.41;29395;206;63005;-53
2024/02/23 01:33:19;;;;;;;0.60;0.60;;;;;;;4.76;94.83;94991.31;29395;231;63009;-53
2024/02/23 01:33:51;;;;;;;0.60;0.60;;;;;;;4.79;94.26;94986.13;29395;237;63005;-53
2024/02/23 01:34:25;;;;;;;0.60;0.60;;;;;;;4.80;94.36;94982.34;29395;200;63009;-54
2024/02/23 01:34:56;;;;;;;0.60;0.60;;;;;;;4.80;94.65;94976.97;29395;247;63005;-52
2024/02/23 01:35:30;;;;;;;0.60;0.60;;;;;;;4.81;94.61;94977.78;29395;206;63009;-52
2024/02/23 01:36:01;;;;;;;0.60;0.60;;;;;;;4.80;94.45;94970.81;29395;212;63005;-54
2024/02/23 01:36:32;;;;;;;0.60;0.60;;;;;;;4.79;94.38;94970.00;29393;241;64013;-52
2024/02/23 01:37:04;;;;;;;0.60;0.60;;;;;;;4.76;93.13;94969.81;29395;210;63000;-52
2024/02/23 01:37:35;;;;;;;0.60;0.60;;;;;;;4.74;93.85;94972.00;29395;284;63009;-52
2024/02/23 01:38:06;;;;;;;0.50;0.50;;;;;;;4.81;94.02;94972.41;29395;290;63004;-52
2024/02/23 01:38:42;;;;;;;0.60;0.60;;;;;;;4.82;93.34;94977.47;29395;209;63009;-52
2024/02/23 01:39:13;;;;;;;0.60;0.60;;;;;;;4.80;93.05;94981.56;29395;210;63004;-52
2024/02/23 01:39:45;;;;;;;0.60;0.60;;;;;;;4.77;94.25;94982.94;29394;267;64009;-53
2024/02/23 01:40:16;;;;;;;0.60;0.60;;;;;;;4.75;94.59;94973.59;29395;202;63005;-53
2024/02/23 01:40:48;;;;;;;0.60;0.60;;;;;;;4.71;93.82;94979.56;29394;207;63005;-52
2024/02/23 01:41:19;;;;;;;0.60;0.60;;;;;;;4.70;94.05;94982.56;29395;234;63005;-52
2024/02/23 01:41:51;;;;;;;0.60;0.60;;;;;;;4.69;94.36;94975.59;29393;229;64013;-53
2024/02/23 01:42:23;;;;;;;0.50;0.50;;;;;;;4.78;94.20;94983.75;29395;211;63005;-53
2024/02/23 01:43:05;;;;;;;0.60;0.60;;;;;;;4.82;93.68;94979.38;29395;240;63009;-53
2024/02/23 01:43:37;;;;;;;0.60;0.60;;;;;;;4.83;93.55;94975.56;29395;222;63005;-53
2024/02/23 01:44:08;;;;;;;0.60;0.60;;;;;;;4.80;93.28;94979.66;29395;297;63009;-52
2024/02/23 01:44:40;;;;;;;0.60;0.60;;;;;;;4.78;93.64;94983.75;29395;276;63004;-53
2024/02/23 01:45:11;;;;;;;0.60;0.60;;;;;;;4.82;93.93;94984.75;29395;236;63009;-53
2024/02/23 01:45:42;;;;;;;0.60;0.60;;;;;;;4.83;93.53;94987.13;29395;212;63004;-52
2024/02/23 01:46:18;;;;;;;0.60;0.60;;;;;;;4.83;93.42;94989.81;29395;206;63017;-53
2024/02/23 01:46:51;;;;;;;0.60;0.60;;;;;;;4.84;93.73;94985.22;29395;208;63004;-53
2024/02/23 01:47:27;;;;;;;0.57;0.57;;;;;;;4.83;93.78;94987.13;29394;226;64014;-52
2024/02/23 01:48:02;;;;;;;0.60;0.60;;;;;;;4.80;93.94;94976.19;29395;230;63005;-52
2024/02/23 01:48:34;;;;;;;0.60;0.60;;;;;;;4.76;94.25;94976.00;29395;227;63009;-53
2024/02/23 01:49:08;;;;;;;0.60;0.60;;;;;;;4.76;94.00;94978.66;29395;246;63005;-53
2024/02/23 01:49:39;;;;;;;0.60;0.60;;;;;;;4.76;94.29;94976.00;29395;228;63009;-53
2024/02/23 01:50:12;;;;;;;0.60;0.60;;;;;;;4.71;94.43;94984.94;29395;208;63005;-52
2024/02/23 01:50:44;;;;;;;0.60;0.60;;;;;;;4.77;94.27;94980.25;29395;209;63009;-54
2024/02/23 01:51:16;;;;;;;0.60;0.60;;;;;;;4.76;93.78;94981.38;29395;260;63009;-52
2024/02/23 01:51:49;;;;;;;0.60;0.60;;;;;;;4.75;93.84;94981.66;29395;274;63015;-53
2024/02/23 01:52:21;;;;;;;0.60;0.60;;;;;;;4.74;93.81;94988.13;29395;227;63016;-53
2024/02/23 01:52:54;;;;;;;0.60;0.60;;;;;;;4.71;94.52;94990.31;29394;196;64013;-53
2024/02/23 01:53:27;;;;;;;0.60;0.60;;;;;;;4.69;94.56;94981.78;29395;286;63004;-52
2024/02/23 01:53:59;;;;;;;0.60;0.60;;;;;;;4.69;94.51;94987.13;29395;262;63008;-52
2024/02/23 01:54:31;;;;;;;0.50;0.50;;;;;;;4.69;95.08;94986.34;29395;222;63004;-52
2024/02/23 01:55:03;;;;;;;0.60;0.60;;;;;;;4.67;95.23;94977.78;29395;313;63009;-52
2024/02/23 01:55:34;;;;;;;0.60;0.60;;;;;;;4.65;95.48;94975.41;29395;240;63005;-52
2024/02/23 01:56:06;;;;;;;0.60;0.60;;;;;;;4.64;95.84;94984.56;29395;224;63009;-53
2024/02/23 01:56:39;;;;;;;0.60;0.60;;;;;;;4.62;95.85;94981.38;29395;243;63005;-53
2024/02/23 01:57:12;;;;;;;0.60;0.60;;;;;;;4.61;95.99;94990.53;29395;203;63009;-52
2024/02/23 01:57:46;;;;;;;0.57;0.57;;;;;;;4.60;96.16;94980.88;29395;229;63005;-53
2024/02/23 01:58:18;;;;;;;0.60;0.60;;;;;;;4.61;96.22;94984.38;29394;231;64013;-53
2024/02/23 01:58:50;;;;;;;0.60;0.60;;;;;;;4.58;95.99;94980.38;29395;238;63004;-53
2024/02/23 01:59:22;;;;;;;0.60;0.60;;;;;;;4.59;96.03;94990.03;29395;272;63009;-53
2024/02/23 01:59:55;;;;;;;0.60;0.60;;;;;;;4.59;96.31;94981.97;29395;223;63004;-53
2024/02/23 02:00:27;;;;;;;0.60;0.60;;;;;;;4.60;96.60;94983.56;29395;197;63009;-53
2024/02/23 02:00:58;;;;;;;0.60;0.60;;;;;;;4.60;96.95;94982.78;29395;204;63004;-53
2024/02/23 02:01:31;;;;;;;0.50;0.50;;;;;;;4.61;97.24;94985.16;29395;274;63008;-54
2024/02/23 02:02:03;;;;;;;0.60;0.60;;;;;;;4.67;96.30;94986.66;29395;219;63004;-54
2024/02/23 02:02:35;;;;;;;0.60;0.60;;;;;;;4.71;95.45;94978.78;29395;208;63009;-53
2024/02/23 02:03:06;;;;;;;0.60;0.60;;;;;;;4.72;94.84;94986.53;29395;219;63005;-53
2024/02/23 02:03:40;;;;;;;0.60;0.60;;;;;;;4.70;94.52;94983.34;29394;253;64013;-53
2024/02/23 02:04:11;;;;;;;0.60;0.60;;;;;;;4.74;95.05;94985.44;29395;228;63005;-53
2024/02/23 02:04:42;;;;;;;0.60;0.60;;;;;;;4.74;95.36;94982.75;29395;268;63009;-53
2024/02/23 02:05:15;;;;;;;0.60;0.60;;;;;;;4.75;95.18;94987.03;29395;224;63005;-53
2024/02/23 02:05:46;;;;;;;0.60;0.60;;;;;;;4.74;95.00;94983.56;29395;296;63009;-52
2024/02/23 02:06:18;;;;;;;0.60;0.60;;;;;;;4.75;94.65;94984.34;29395;197;63004;-53
2024/02/23 02:06:49;;;;;;;0.60;0.60;;;;;;;4.76;95.06;94985.94;29395;280;63009;-52
2024/02/23 02:07:22;;;;;;;0.60;0.60;;;;;;;4.73;94.91;94981.97;29395;244;63004;-52
2024/02/23 02:07:58;;;;;;;0.60;0.60;;;;;;;4.72;95.01;94991.91;29395;239;63009;-52
2024/02/23 02:08:30;;;;;;;0.60;0.60;;;;;;;4.69;94.92;94992.50;29395;238;63007;-52
2024/02/23 02:09:02;;;;;;;0.60;0.60;;;;;;;4.69;95.24;94992.50;29394;202;64014;-53
2024/02/23 02:09:33;;;;;;;0.55;0.55;;;;;;;4.71;95.05;94993.00;29395;299;63005;-53
2024/02/23 02:10:08;;;;;;;0.60;0.60;;;;;;;4.75;94.22;94987.03;29395;237;63009;-53
2024/02/23 02:10:40;;;;;;;0.60;0.60;;;;;;;4.78;94.11;94995.28;29395;252;63005;-54
2024/02/23 02:11:11;;;;;;;0.60;0.60;;;;;;;4.84;93.79;94988.72;29395;227;63009;-53
2024/02/23 02:11:50;;;;;;;0.60;0.60;;;;;;;4.87;92.94;94987.28;29395;239;63005;-54
2024/02/23 02:12:29;;;;;;;0.55;0.55;;;;;;;4.88;92.25;94986.19;29395;220;63009;-53
2024/02/23 02:13:06;;;;;;;0.50;0.50;;;;;;;4.85;92.00;94990.28;29395;219;63005;-52
2024/02/23 02:13:37;;;;;;;0.60;0.60;;;;;;;4.83;92.91;95002.44;29395;197;63009;-53
2024/02/23 02:14:10;;;;;;;0.60;0.60;;;;;;;4.80;93.00;95001.16;29394;199;64009;-52
2024/02/23 02:14:41;;;;;;;0.60;0.60;;;;;;;4.80;93.12;95003.03;29395;255;63009;-53
2024/02/23 02:15:13;;;;;;;0.60;0.60;;;;;;;4.83;93.01;95002.44;29395;273;63004;-52
2024/02/23 02:15:44;;;;;;;0.60;0.60;;;;;;;4.83;92.95;94999.75;29395;239;63008;-53
2024/02/23 02:16:15;;;;;;;0.60;0.60;;;;;;;4.81;92.99;95002.75;29395;264;63004;-53
2024/02/23 02:16:46;;;;;;;0.60;0.60;;;;;;;4.78;92.35;95006.03;29395;224;63009;-53
2024/02/23 02:17:18;;;;;;;0.60;0.60;;;;;;;4.78;92.81;95002.56;29395;224;63005;-52
2024/02/23 02:17:51;;;;;;;0.57;0.57;;;;;;;4.76;92.83;95002.06;29395;192;63009;-53
2024/02/23 02:18:22;;;;;;;0.60;0.60;;;;;;;4.76;93.04;95008.22;29395;231;63005;-53
2024/02/23 02:18:53;;;;;;;0.60;0.60;;;;;;;4.78;93.02;95008.72;29395;222;63009;-54
2024/02/23 02:19:26;;;;;;;0.60;0.60;;;;;;;4.87;91.45;95004.19;29393;206;64009;-53
2024/02/23 02:20:04;;;;;;;0.60;0.60;;;;;;;4.93;91.34;95002.19;29395;224;63009;-54
2024/02/23 02:20:36;;;;;;;0.60;0.60;;;;;;;5.01;89.59;95004.19;29395;202;63005;-53
2024/02/23 02:21:11;;;;;;;0.60;0.60;;;;;;;5.01;89.39;95009.56;29395;244;63009;-53
2024/02/23 02:21:43;;;;;;;0.60;0.60;;;;;;;4.96;89.61;95012.34;29395;219;63004;-52
2024/02/23 02:22:14;;;;;;;0.60;0.60;;;;;;;4.99;89.80;95011.75;29395;278;63009;-53
2024/02/23 02:22:49;;;;;;;0.60;0.60;;;;;;;4.96;89.73;95005.09;29395;199;63004;-54
2024/02/23 02:23:21;;;;;;;0.60;0.60;;;;;;;4.96;90.44;95006.97;29395;221;63008;-53
2024/02/23 02:23:52;;;;;;;0.60;0.60;;;;;;;4.91;90.67;95004.41;29395;210;63008;-52
2024/02/23 02:24:26;;;;;;;0.60;0.60;;;;;;;4.87;91.05;95011.47;29395;249;63027;-53
2024/02/23 02:24:58;;;;;;;0.50;0.50;;;;;;;4.82;91.03;95011.59;29393;286;64009;-53
2024/02/23 02:25:30;;;;;;;0.60;0.60;;;;;;;4.79;91.71;95010.31;29395;214;63009;-53
2024/02/23 02:26:01;;;;;;;0.60;0.60;;;;;;;4.78;92.04;95022.16;29395;230;63005;-52
2024/02/23 02:26:32;;;;;;;0.60;0.60;;;;;;;4.78;92.27;95016.00;29395;202;63009;-53
2024/02/23 02:27:06;;;;;;;0.60;0.60;;;;;;;4.76;92.09;95015.50;29395;207;63000;-54
2024/02/23 02:27:37;;;;;;;0.60;0.60;;;;;;;4.72;92.25;95010.72;29395;243;63009;-53
2024/02/23 02:28:09;;;;;;;0.60;0.60;;;;;;;4.70;92.42;95015.59;29395;223;63005;-53
2024/02/23 02:28:40;;;;;;;0.60;0.60;;;;;;;4.69;92.62;95014.00;29395;202;63009;-52
2024/02/23 02:29:11;;;;;;;0.60;0.60;;;;;;;4.68;92.67;95012.41;29395;299;63004;-53
2024/02/23 02:29:43;;;;;;;0.60;0.60;;;;;;;4.66;93.03;95006.53;29395;238;63009;-52
2024/02/23 02:30:15;;;;;;;0.60;0.60;;;;;;;4.65;92.78;95004.97;29394;217;64009;-53
2024/02/23 02:30:46;;;;;;;0.60;0.60;;;;;;;4.64;93.41;95008.75;29395;287;63009;-53
2024/02/23 02:31:18;;;;;;;0.57;0.57;;;;;;;4.62;93.80;95013.63;29395;205;63004;-52
2024/02/23 02:31:49;;;;;;;0.60;0.60;;;;;;;4.60;94.20;95005.06;29395;272;63009;-53
2024/02/23 02:32:20;;;;;;;0.60;0.60;;;;;;;4.58;94.66;95009.94;29395;202;63005;-64
2024/02/23 02:32:52;;;;;;;0.60;0.60;;;;;;;4.55;94.33;95007.84;29395;202;63009;-53
2024/02/23 02:33:23;;;;;;;0.50;0.50;;;;;;;4.55;94.44;95004.38;29395;292;63005;-54
2024/02/23 02:33:54;;;;;;;0.57;0.57;;;;;;;4.57;95.00;95011.03;29395;275;63009;-53
2024/02/23 02:34:25;;;;;;;0.60;0.60;;;;;;;4.61;94.97;95012.03;29395;202;63010;-53
2024/02/23 02:34:57;;;;;;;0.60;0.60;;;;;;;4.64;94.34;95010.63;29395;197;63009;-53